Time,TemperatureF,DewpointF,PressureIn,WindDirection,WindDirectionDegrees,WindSpeedMPH,WindSpeedGustMPH,Humidity,HourlyPrecipIn,Conditions,Clouds,dailyrainin,SoftwareType,DateUTC
2013-05-20 00:04:00,66.2,58.0,29.81,ESE,116,8.0,10.0,74,0.00,,,0.00,weatherlink.com 1.10,2013-05-20 04:04:00,
2013-05-20 00:19:00,66.0,58.0,29.81,ESE,114,8.0,11.0,74,0.00,,,0.00,weatherlink.com 1.10,2013-05-20 04:19:00,
2013-05-20 00:34:00,66.2,57.0,29.81,ESE,123,10.0,11.0,72,0.00,,,0.00,weatherlink.com 1.10,2013-05-20 04:34:00,
2013-05-20 00:49:00,65.8,57.0,29.80,ESE,123,8.0,9.0,72,0.00,,,0.00,weatherlink.com 1.10,2013-05-20 04:49:00,
2013-05-20 01:04:00,65.8,57.0,29.80,ESE,123,7.0,10.0,72,0.00,,,0.00,weatherlink.com 1.10,2013-05-20 05:04:00,
2013-05-20 01:19:00,65.6,56.0,29.80,SE,124,6.0,10.0,72,0.00,,,0.00,weatherlink.com 1.10,2013-05-20 05:19:00,
2013-05-20 01:34:00,65.4,57.0,29.80,ESE,121,7.0,9.0,73,0.00,,,0.00,weatherlink.com 1.10,2013-05-20 05:34:00,
2013-05-20 01:49:00,65.3,56.0,29.79,ESE,123,5.0,8.0,73,0.00,,,0.00,weatherlink.com 1.10,2013-05-20 05:49:00,
2013-05-20 02:04:00,65.4,57.0,29.79,ESE,111,7.0,8.0,73,0.00,,,0.00,weatherlink.com 1.10,2013-05-20 06:04:00,
2013-05-20 02:19:00,65.0,56.0,29.79,East,98,7.0,10.0,73,0.00,,,0.00,weatherlink.com 1.10,2013-05-20 06:19:00,
2013-05-20 02:34:00,64.3,56.0,29.78,ESE,117,8.0,10.0,75,0.00,,,0.00,weatherlink.com 1.10,2013-05-20 06:34:00,
2013-05-20 02:49:00,64.6,56.0,29.78,ESE,111,8.0,11.0,74,0.00,,,0.00,weatherlink.com 1.10,2013-05-20 06:49:00,
2013-05-20 03:04:00,64.9,56.0,29.78,East,101,8.0,11.0,73,0.00,,,0.00,weatherlink.com 1.10,2013-05-20 07:04:00,
2013-05-20 03:19:00,64.1,56.0,29.77,ESE,113,7.0,12.0,74,0.00,,,0.00,weatherlink.com 1.10,2013-05-20 07:19:00,
2013-05-20 03:34:00,63.1,55.0,29.77,ESE,116,9.0,11.0,76,0.00,,,0.00,weatherlink.com 1.10,2013-05-20 07:34:00,
2013-05-20 03:49:00,63.0,56.0,29.78,ESE,119,10.0,11.0,77,0.00,,,0.00,weatherlink.com 1.10,2013-05-20 07:49:00,
2013-05-20 04:04:00,63.3,56.0,29.77,SE,124,10.0,12.0,78,0.00,,,0.00,weatherlink.com 1.10,2013-05-20 08:04:00,
2013-05-20 04:19:00,64.2,57.0,29.77,SE,128,9.0,13.0,77,0.00,,,0.00,weatherlink.com 1.10,2013-05-20 08:19:00,
2013-05-20 04:34:00,64.6,58.0,29.77,ESE,117,5.0,11.0,79,0.00,,,0.00,weatherlink.com 1.10,2013-05-20 08:34:00,
2013-05-20 04:49:00,63.9,57.0,29.77,ESE,119,9.0,12.0,79,0.00,,,0.00,weatherlink.com 1.10,2013-05-20 08:49:00,
2013-05-20 05:04:00,63.3,57.0,29.78,ESE,120,7.0,9.0,80,0.00,,,0.00,weatherlink.com 1.10,2013-05-20 09:04:00,
2013-05-20 05:19:00,62.4,57.0,29.79,ESE,114,4.0,5.0,81,0.00,,,0.00,weatherlink.com 1.10,2013-05-20 09:19:00,
2013-05-20 05:34:00,61.7,56.0,29.77,ESE,116,7.0,10.0,82,0.00,,,0.00,weatherlink.com 1.10,2013-05-20 09:34:00,
2013-05-20 05:49:00,61.1,56.0,29.76,ESE,115,12.0,12.0,82,0.00,,,0.00,weatherlink.com 1.10,2013-05-20 09:49:00,
2013-05-20 06:04:00,60.2,55.0,29.78,ESE,121,8.0,12.0,83,0.00,,,0.00,weatherlink.com 1.10,2013-05-20 10:04:00,
2013-05-20 06:19:00,60.1,55.0,29.78,SE,124,8.0,11.0,83,0.00,,,0.00,weatherlink.com 1.10,2013-05-20 10:19:00,
2013-05-20 06:35:00,60.0,55.0,29.79,ESE,109,10.0,14.0,83,0.00,,,0.00,weatherlink.com 1.10,2013-05-20 10:35:00,
2013-05-20 06:50:00,59.3,54.0,29.79,East,98,11.0,16.0,83,0.00,,,0.00,weatherlink.com 1.10,2013-05-20 10:50:00,
2013-05-20 07:05:00,57.5,53.0,29.79,ESE,111,13.0,18.0,85,0.00,,,0.00,weatherlink.com 1.10,2013-05-20 11:05:00,
2013-05-20 07:20:00,56.6,53.0,29.78,East,97,18.0,22.0,86,0.00,,,0.00,weatherlink.com 1.10,2013-05-20 11:20:00,
2013-05-20 07:35:00,56.2,53.0,29.78,ESE,110,15.0,22.0,88,0.00,,,0.00,weatherlink.com 1.10,2013-05-20 11:35:00,
2013-05-20 07:50:00,56.2,53.0,29.77,East,99,14.0,22.0,89,0.00,,,0.00,weatherlink.com 1.10,2013-05-20 11:50:00,
2013-05-20 08:05:00,56.8,54.0,29.77,ESE,119,13.0,17.0,89,0.00,,,0.00,weatherlink.com 1.10,2013-05-20 12:05:00,
2013-05-20 08:20:00,57.8,54.0,29.77,East,96,16.0,17.0,88,0.00,,,0.00,weatherlink.com 1.10,2013-05-20 12:20:00,
2013-05-20 08:35:00,58.6,55.0,29.77,ESE,115,12.0,17.0,87,0.00,,,0.00,weatherlink.com 1.10,2013-05-20 12:35:00,
2013-05-20 08:50:00,59.5,55.0,29.77,East,93,3.0,9.0,86,0.00,,,0.00,weatherlink.com 1.10,2013-05-20 12:50:00,
2013-05-20 09:05:00,59.6,56.0,29.78,East,84,7.0,10.0,86,0.00,,,0.00,weatherlink.com 1.10,2013-05-20 13:05:00,
2013-05-20 09:20:00,60.2,56.0,29.78,ESE,111,11.0,15.0,86,0.00,,,0.00,weatherlink.com 1.10,2013-05-20 13:20:00,
2013-05-20 09:35:00,60.9,56.0,29.77,ESE,116,7.0,17.0,85,0.00,,,0.00,weatherlink.com 1.10,2013-05-20 13:35:00,
2013-05-20 09:50:00,61.7,57.0,29.75,ESE,104,14.0,23.0,85,0.00,,,0.00,weatherlink.com 1.10,2013-05-20 13:50:00,
2013-05-20 10:05:00,62.4,58.0,29.76,ESE,108,10.0,17.0,85,0.00,,,0.00,weatherlink.com 1.10,2013-05-20 14:05:00,
2013-05-20 10:20:00,63.4,58.0,29.76,ESE,105,10.0,17.0,83,0.00,,,0.00,weatherlink.com 1.10,2013-05-20 14:20:00,
2013-05-20 10:35:00,66.5,61.0,29.75,ESE,105,12.0,13.0,81,0.00,,,0.00,weatherlink.com 1.10,2013-05-20 14:35:00,
2013-05-20 10:50:00,67.6,61.0,29.75,East,98,11.0,14.0,79,0.00,,,0.00,weatherlink.com 1.10,2013-05-20 14:50:00,
2013-05-20 11:05:00,69.4,62.0,29.74,ENE,77,5.0,14.0,77,0.00,,,0.00,weatherlink.com 1.10,2013-05-20 15:05:00,
2013-05-20 11:20:00,72.5,64.0,29.75,ESE,107,14.0,17.0,74,0.00,,,0.00,weatherlink.com 1.10,2013-05-20 15:20:00,
2013-05-20 11:35:00,70.0,62.0,29.74,East,101,8.0,13.0,75,0.00,,,0.00,weatherlink.com 1.10,2013-05-20 15:35:00,
2013-05-20 11:50:00,69.4,62.0,29.74,East,84,6.0,10.0,77,0.00,,,0.00,weatherlink.com 1.10,2013-05-20 15:50:00,
2013-05-20 12:05:00,71.1,63.0,29.72,East,92,10.0,13.0,76,0.00,,,0.00,weatherlink.com 1.10,2013-05-20 16:05:00,
2013-05-20 12:20:00,73.0,63.0,29.73,East,96,8.0,15.0,72,0.00,,,0.00,weatherlink.com 1.10,2013-05-20 16:20:00,
2013-05-20 12:35:00,72.6,63.0,29.71,ESE,103,12.0,18.0,72,0.00,,,0.00,weatherlink.com 1.10,2013-05-20 16:35:00,
2013-05-20 12:50:00,72.2,63.0,29.71,East,98,10.0,16.0,72,0.00,,,0.00,weatherlink.com 1.10,2013-05-20 16:50:00,
2013-05-20 13:05:00,72.8,63.0,29.70,East,91,11.0,17.0,72,0.00,,,0.00,weatherlink.com 1.10,2013-05-20 17:05:00,
2013-05-20 13:20:00,73.3,63.0,29.69,ESE,120,16.0,18.0,71,0.00,,,0.00,weatherlink.com 1.10,2013-05-20 17:20:00,
2013-05-20 13:35:00,75.4,64.0,29.68,East,96,7.0,16.0,68,0.00,,,0.00,weatherlink.com 1.10,2013-05-20 17:35:00,
2013-05-20 13:50:00,75.0,64.0,29.67,East,92,14.0,16.0,68,0.00,,,0.00,weatherlink.com 1.10,2013-05-20 17:50:00,
2013-05-20 14:05:00,73.6,63.0,29.66,East,88,15.0,18.0,69,0.00,,,0.00,weatherlink.com 1.10,2013-05-20 18:05:00,
2013-05-20 14:21:00,72.6,62.0,29.64,East,90,14.0,21.0,70,0.00,,,0.00,weatherlink.com 1.10,2013-05-20 18:21:00,
2013-05-20 14:36:00,74.2,64.0,29.64,East,92,9.0,15.0,70,0.00,,,0.00,weatherlink.com 1.10,2013-05-20 18:36:00,
2013-05-20 14:51:00,72.0,63.0,29.63,East,88,11.0,17.0,73,0.00,,,0.00,weatherlink.com 1.10,2013-05-20 18:51:00,
2013-05-20 15:06:00,70.4,64.0,29.67,NE,55,4.0,21.0,81,0.02,,,0.02,weatherlink.com 1.10,2013-05-20 19:06:00,
2013-05-20 15:21:00,70.3,65.0,29.68,NW,318,2.0,5.0,83,0.02,,,0.02,weatherlink.com 1.10,2013-05-20 19:21:00,
2013-05-20 15:36:00,70.0,65.0,29.68,NW,315,5.0,9.0,85,0.02,,,0.02,weatherlink.com 1.10,2013-05-20 19:36:00,
2013-05-20 15:51:00,67.3,63.0,29.70,SE,136,7.0,13.0,85,0.02,,,0.02,weatherlink.com 1.10,2013-05-20 19:51:00,
2013-05-20 16:06:00,67.2,64.0,29.67,SE,142,3.0,6.0,90,0.00,,,0.02,weatherlink.com 1.10,2013-05-20 20:06:00,
2013-05-20 16:21:00,69.0,66.0,29.67,SE,142,5.0,5.0,90,0.00,,,0.02,weatherlink.com 1.10,2013-05-20 20:21:00,
2013-05-20 16:36:00,69.1,66.0,29.68,WNW,285,5.0,8.0,91,0.00,,,0.02,weatherlink.com 1.10,2013-05-20 20:36:00,
2013-05-20 16:51:00,67.9,66.0,29.68,NNE,32,3.0,6.0,92,0.00,,,0.02,weatherlink.com 1.10,2013-05-20 20:51:00,
2013-05-20 17:06:00,64.0,63.0,29.68,North,350,6.0,10.0,95,0.00,,,0.02,weatherlink.com 1.10,2013-05-20 21:06:00,
2013-05-20 17:21:00,63.6,63.0,29.68,NNW,334,7.0,8.0,96,0.00,,,0.02,weatherlink.com 1.10,2013-05-20 21:21:00,
2013-05-20 17:36:00,63.5,62.0,29.68,NNW,340,3.0,6.0,96,0.00,,,0.02,weatherlink.com 1.10,2013-05-20 21:36:00,
2013-05-20 17:51:00,63.4,62.0,29.68,NNW,344,2.0,5.0,95,0.00,,,0.02,weatherlink.com 1.10,2013-05-20 21:51:00,
2013-05-20 18:06:00,65.1,64.0,29.68,East,93,5.0,7.0,95,0.00,,,0.02,weatherlink.com 1.10,2013-05-20 22:06:00,
2013-05-20 18:21:00,65.5,64.0,29.68,East,97,5.0,7.0,95,0.00,,,0.02,weatherlink.com 1.10,2013-05-20 22:21:00,
2013-05-20 18:36:00,65.8,64.0,29.69,East,97,3.0,6.0,95,0.00,,,0.02,weatherlink.com 1.10,2013-05-20 22:36:00,
2013-05-20 18:51:00,66.3,65.0,29.69,East,97,1.0,5.0,95,0.00,,,0.02,weatherlink.com 1.10,2013-05-20 22:51:00,
2013-05-20 19:06:00,67.3,66.0,29.69,East,97,0.0,6.0,95,0.00,,,0.02,weatherlink.com 1.10,2013-05-20 23:06:00,
2013-05-20 19:21:00,68.0,66.0,29.69,East,97,2.0,5.0,92,0.00,,,0.02,weatherlink.com 1.10,2013-05-20 23:21:00,
2013-05-20 19:36:00,68.3,66.0,29.69,East,96,2.0,6.0,91,0.00,,,0.02,weatherlink.com 1.10,2013-05-20 23:36:00,
2013-05-20 19:51:00,68.1,66.0,29.68,East,96,5.0,7.0,94,0.00,,,0.02,weatherlink.com 1.10,2013-05-20 23:51:00,
2013-05-20 20:06:00,67.1,66.0,29.68,East,95,9.0,10.0,95,0.00,,,0.02,weatherlink.com 1.10,2013-05-21 00:06:00,
2013-05-20 20:21:00,66.7,66.0,29.68,East,98,6.0,10.0,96,0.00,,,0.02,weatherlink.com 1.10,2013-05-21 00:21:00,
2013-05-20 20:36:00,66.7,66.0,29.68,ESE,103,8.0,11.0,97,0.01,,,0.03,weatherlink.com 1.10,2013-05-21 00:36:00,
2013-05-20 20:51:00,66.7,66.0,29.68,ESE,113,5.0,9.0,97,0.01,,,0.03,weatherlink.com 1.10,2013-05-21 00:51:00,
2013-05-20 21:06:00,66.5,66.0,29.68,ESE,109,8.0,9.0,97,0.01,,,0.03,weatherlink.com 1.10,2013-05-21 01:06:00,
2013-05-20 21:21:00,66.3,66.0,29.68,ESE,105,10.0,10.0,97,0.01,,,0.03,weatherlink.com 1.10,2013-05-21 01:21:00,
2013-05-20 21:36:00,65.4,65.0,29.68,ESE,106,12.0,13.0,97,0.00,,,0.03,weatherlink.com 1.10,2013-05-21 01:36:00,
2013-05-20 21:51:00,65.0,64.0,29.68,ESE,107,10.0,14.0,97,0.00,,,0.03,weatherlink.com 1.10,2013-05-21 01:51:00,
2013-05-20 22:06:00,64.9,64.0,29.68,ESE,108,8.0,12.0,98,0.00,,,0.03,weatherlink.com 1.10,2013-05-21 02:06:00,
2013-05-20 22:21:00,64.8,64.0,29.68,East,97,7.0,13.0,98,0.00,,,0.03,weatherlink.com 1.10,2013-05-21 02:21:00,
2013-05-20 22:36:00,64.3,64.0,29.69,East,94,10.0,13.0,98,0.00,,,0.03,weatherlink.com 1.10,2013-05-21 02:36:00,
2013-05-20 22:51:00,62.9,62.0,29.69,ESE,109,10.0,16.0,98,0.00,,,0.03,weatherlink.com 1.10,2013-05-21 02:51:00,
2013-05-20 23:06:00,62.0,62.0,29.69,ESE,104,10.0,15.0,98,0.00,,,0.03,weatherlink.com 1.10,2013-05-21 03:06:00,
2013-05-20 23:21:00,61.4,61.0,29.69,ESE,102,10.0,16.0,98,0.00,,,0.03,weatherlink.com 1.10,2013-05-21 03:21:00,
2013-05-20 23:36:00,59.9,59.0,29.69,East,93,11.0,18.0,98,0.00,,,0.03,weatherlink.com 1.10,2013-05-21 03:36:00,
2013-05-20 23:51:00,59.2,59.0,29.69,East,101,14.0,16.0,98,0.00,,,0.03,weatherlink.com 1.10,2013-05-21 03:51:00,